createdAt,value
2018-03-16T13:08:15.690Z,97.96
2018-03-16T13:09:11.301Z,98.04
2018-03-16T13:10:11.306Z,97.88
2018-03-16T13:11:11.334Z,97.91
2018-03-16T13:12:11.299Z,98.12
2018-03-16T13:13:11.273Z,98.31
2018-03-16T13:14:11.399Z,98.64
2018-03-16T13:15:11.472Z,98.69
2018-03-16T13:16:11.344Z,98.72
2018-03-16T13:17:11.398Z,98.64
2018-03-16T13:18:11.387Z,98.23
2018-03-16T13:19:11.415Z,98.12
2018-03-16T13:20:11.277Z,98.02
2018-03-16T13:21:11.303Z,98.23
2018-03-16T13:22:11.399Z,98.42
2018-03-16T13:23:11.363Z,98.42
2018-03-16T13:24:11.345Z,98.31
2018-03-16T13:25:11.309Z,98.48
2018-03-16T13:26:11.289Z,98.53
2018-03-16T13:27:11.281Z,98.69
2018-03-16T13:28:11.397Z,99.02
2018-03-16T13:29:11.354Z,98.69
2018-03-16T13:30:11.374Z,98.31
2018-03-16T13:31:11.347Z,98.07
2018-03-16T13:32:11.346Z,97.93
2018-03-16T13:33:11.340Z,97.83
2018-03-16T13:34:11.380Z,97.77
2018-03-16T13:35:11.345Z,97.77
2018-03-16T13:36:11.281Z,97.47
2018-03-16T13:37:11.317Z,96.91
2018-03-16T13:38:11.333Z,96.77
2018-03-16T13:39:11.409Z,96.88
2018-03-16T13:40:11.405Z,96.93
2018-03-16T13:41:11.360Z,96.72
2018-03-16T13:42:11.292Z,96.61
2018-03-16T13:43:11.301Z,96.34
2018-03-16T13:44:11.301Z,96.55
2018-03-16T13:45:11.403Z,96.88
2018-03-16T13:46:11.357Z,97.23
2018-03-16T13:47:11.412Z,97.31
2018-03-16T13:48:11.292Z,97.61
2018-03-16T13:49:11.363Z,97.72
2018-03-16T13:50:11.356Z,97.96
2018-03-16T13:51:11.411Z,98.23
2018-03-16T13:52:11.359Z,98.48
2018-03-16T13:53:11.362Z,98.66
2018-03-16T13:54:11.416Z,98.55
2018-03-16T13:55:11.359Z,98.31
2018-03-16T13:56:11.356Z,98.37
2018-03-16T13:57:11.333Z,98.26
2018-03-16T13:58:11.424Z,98.21
2018-03-16T13:59:11.356Z,97.96
2018-03-16T14:00:11.392Z,97.88
2018-03-16T14:01:11.414Z,97.99
2018-03-16T14:02:11.301Z,98.18
2018-03-16T14:03:11.393Z,98.12
2018-03-16T14:04:11.389Z,97.66
2018-03-16T14:05:11.335Z,97.39
2018-03-16T14:06:11.305Z,97.31
2018-03-16T14:07:11.365Z,97.39
2018-03-16T14:08:11.421Z,97.26
2018-03-16T14:09:11.312Z,97.02
2018-03-16T14:10:11.306Z,96.99
2018-03-16T14:11:11.426Z,97.04
2018-03-16T14:12:11.424Z,97.34
2018-03-16T14:13:11.339Z,97.53
2018-03-16T14:14:11.307Z,97.61
2018-03-16T14:15:11.341Z,97.53
2018-03-16T14:16:11.387Z,97.47
2018-03-16T14:17:11.436Z,97.47
2018-03-16T14:18:11.373Z,97.61
2018-03-16T14:19:11.389Z,97.96
2018-03-16T14:20:11.348Z,98.18
2018-03-16T14:21:11.341Z,98.34
2018-03-16T14:22:11.429Z,98.23
2018-03-16T14:23:11.372Z,98.29
2018-03-16T14:24:11.400Z,98.15
2018-03-16T14:25:11.438Z,98.02
2018-03-16T14:26:11.379Z,97.85
2018-03-16T14:27:11.452Z,97.72
2018-03-16T14:28:11.409Z,97.58
2018-03-16T14:29:11.381Z,97.50
2018-03-16T14:30:11.388Z,97.72
2018-03-16T14:31:11.350Z,97.88
2018-03-16T14:32:11.441Z,97.64
2018-03-16T14:33:11.322Z,97.72
2018-03-16T14:34:11.359Z,97.66
2018-03-16T14:35:11.335Z,97.72
2018-03-16T14:36:11.452Z,97.83
2018-03-16T14:37:11.445Z,97.88
2018-03-16T14:38:11.384Z,97.88
2018-03-16T14:39:11.439Z,98.02
2018-03-16T14:40:11.449Z,98.02
2018-03-16T14:41:11.392Z,98.12
2018-03-16T14:42:11.395Z,98.37
2018-03-16T14:43:11.353Z,98.48
2018-03-16T14:44:11.424Z,98.61
2018-03-16T14:45:11.418Z,98.91
2018-03-16T14:46:11.328Z,99.04
2018-03-16T14:47:11.452Z,98.69
2018-03-16T14:48:11.448Z,98.50
2018-03-16T14:49:11.333Z,97.99
2018-03-16T14:50:11.361Z,97.66
2018-03-16T14:51:11.426Z,97.66
2018-03-16T14:52:11.331Z,97.74
2018-03-16T14:53:11.394Z,97.53
2018-03-16T14:54:11.332Z,97.42
2018-03-16T14:55:11.454Z,97.53
2018-03-16T15:04:11.461Z,98.29
2018-03-16T15:05:11.417Z,98.48
2018-03-16T15:06:11.459Z,98.61
2018-03-16T15:07:11.453Z,98.88
2018-03-16T15:08:11.429Z,98.99
2018-03-16T15:09:11.414Z,99.18
2018-03-16T15:10:11.467Z,99.26
2018-03-16T15:11:11.414Z,99.26
2018-03-16T15:12:11.344Z,99.29
2018-03-16T15:13:11.430Z,99.48
2018-03-16T15:14:11.349Z,99.59
2018-03-16T15:15:11.380Z,99.75
2018-03-16T15:16:11.444Z,99.86
2018-03-16T15:17:11.462Z,99.86
2018-03-16T15:18:11.472Z,99.96
2018-03-16T15:19:11.427Z,99.99
2018-03-16T15:20:11.418Z,99.99
2018-03-16T15:21:11.413Z,99.99
2018-03-16T15:22:11.443Z,99.99
2018-03-16T15:23:11.411Z,99.99
2018-03-16T15:24:11.363Z,99.99
2018-03-16T15:25:11.423Z,99.99
2018-03-16T15:26:11.386Z,99.99
2018-03-16T15:27:11.413Z,99.99
2018-03-16T15:28:11.445Z,99.99
2018-03-16T15:29:11.391Z,99.99
2018-03-16T15:30:11.387Z,99.99
2018-03-16T15:31:11.472Z,99.99
2018-03-16T15:32:11.390Z,99.99
2018-03-16T15:33:11.472Z,99.99
2018-03-16T15:34:11.372Z,99.99
2018-03-16T15:35:11.443Z,99.99
2018-03-16T15:36:11.475Z,99.99
2018-03-16T15:37:11.389Z,99.99
2018-03-16T15:38:11.392Z,99.99
2018-03-16T15:39:11.478Z,99.99
2018-03-16T15:40:11.476Z,99.99
2018-03-16T15:41:11.457Z,99.99
2018-03-16T15:42:11.426Z,99.99
2018-03-16T15:43:11.370Z,99.99
2018-03-16T15:44:11.429Z,99.99
2018-03-16T15:45:11.364Z,99.99
2018-03-16T15:46:11.431Z,99.99
2018-03-16T15:47:11.459Z,99.99
2018-03-16T15:48:11.375Z,99.99
2018-03-16T15:49:11.388Z,99.99
2018-03-16T15:50:11.495Z,99.99
2018-03-16T15:51:11.484Z,99.99
2018-03-16T15:52:11.485Z,99.99
2018-03-16T15:53:11.469Z,99.99
2018-03-16T15:54:11.485Z,99.99
2018-03-16T15:55:11.488Z,99.99
2018-03-16T15:56:11.494Z,99.99
2018-03-16T15:57:11.382Z,99.99
2018-03-16T15:58:11.472Z,99.99
2018-03-16T15:59:11.493Z,99.99
2018-03-16T16:00:11.488Z,99.99
2018-03-16T16:01:11.493Z,99.99
2018-03-16T16:02:11.448Z,99.99
2018-03-16T16:03:11.492Z,99.99
2018-03-16T16:04:11.496Z,99.99
2018-03-16T16:05:11.466Z,99.99
2018-03-16T16:06:11.377Z,99.99
2018-03-16T16:07:11.446Z,99.99
2018-03-16T16:08:11.381Z,99.99
2018-03-16T16:09:11.380Z,99.99
2018-03-16T16:10:11.480Z,99.99
2018-03-16T16:11:11.475Z,99.99
2018-03-16T16:12:11.414Z,99.99
2018-03-16T16:13:11.505Z,99.99
2018-03-16T16:14:11.456Z,99.99
2018-03-16T16:15:11.428Z,99.99
2018-03-16T16:16:11.438Z,99.99
2018-03-16T16:17:11.420Z,99.99
2018-03-16T16:18:11.390Z,99.99
2018-03-16T16:19:11.412Z,99.99
2018-03-16T16:20:11.472Z,99.99
2018-03-16T16:21:11.391Z,99.99
2018-03-16T16:22:11.463Z,99.99
2018-03-16T16:23:11.451Z,99.99
2018-03-16T16:24:11.475Z,99.99
2018-03-16T16:25:11.504Z,99.99
2018-03-16T16:26:11.446Z,99.99
2018-03-16T16:27:11.422Z,99.99
2018-03-16T16:28:11.420Z,99.99
2018-03-16T16:29:11.395Z,99.99
2018-03-16T16:30:11.427Z,99.99
2018-03-16T16:31:11.422Z,99.99
2018-03-16T16:32:11.458Z,99.99
2018-03-16T16:33:11.427Z,99.99
2018-03-16T16:34:11.509Z,99.99
2018-03-16T16:35:11.465Z,99.99
2018-03-16T16:36:11.491Z,99.99
2018-03-16T16:37:11.484Z,99.99
2018-03-16T16:38:11.424Z,99.99
2018-03-16T16:39:11.464Z,99.96
2018-03-16T16:40:11.513Z,99.99
2018-03-16T16:41:11.409Z,99.99
2018-03-16T16:42:11.463Z,99.99
2018-03-16T16:43:11.530Z,99.99
2018-03-16T16:44:11.523Z,99.99
2018-03-16T16:45:11.466Z,99.99
2018-03-16T16:48:11.431Z,99.99
2018-03-16T16:49:11.501Z,99.99
2018-03-16T16:50:11.480Z,99.99
2018-03-16T16:51:11.436Z,99.99
2018-03-16T16:52:11.474Z,99.99
2018-03-16T16:53:11.412Z,99.99
2018-03-16T16:54:11.499Z,99.99
2018-03-16T16:55:11.650Z,99.99
2018-03-16T16:56:11.530Z,99.94
2018-03-16T16:57:11.503Z,99.86
2018-03-16T16:58:11.455Z,99.72
2018-03-16T16:59:11.501Z,99.56
2018-03-16T17:00:11.475Z,99.21
2018-03-16T17:01:11.442Z,99.07
2018-03-16T17:02:11.493Z,99.07
2018-03-16T17:03:11.417Z,98.99
2018-03-16T17:04:11.528Z,98.94
2018-03-16T17:05:11.540Z,98.66
2018-03-16T17:06:11.530Z,98.48
2018-03-16T17:07:11.489Z,98.48
2018-03-16T17:08:11.513Z,98.66
2018-03-16T17:09:11.419Z,98.83
2018-03-16T17:10:11.513Z,98.94
2018-03-16T17:11:11.540Z,99.02
2018-03-16T17:12:11.516Z,98.80
2018-03-16T17:13:11.487Z,98.66
2018-03-16T17:14:11.450Z,98.59
2018-03-16T17:15:11.550Z,98.53
2018-03-16T17:16:11.493Z,98.59
2018-03-16T17:17:11.488Z,98.66
2018-03-16T17:18:11.542Z,98.72
2018-03-16T17:19:11.439Z,98.69
2018-03-16T17:20:11.552Z,98.77
2018-03-16T17:21:11.440Z,98.75
2018-03-16T17:22:11.546Z,98.69
2018-03-16T17:23:11.440Z,98.53
2018-03-16T17:24:11.559Z,98.53
2018-03-16T17:25:11.439Z,98.61
2018-03-16T17:26:11.547Z,98.53
2018-03-16T17:27:11.495Z,98.55
2018-03-16T17:28:11.548Z,98.53
2018-03-16T17:29:11.442Z,98.37
2018-03-16T17:30:11.441Z,98.12
2018-03-16T17:31:11.552Z,98.02
2018-03-16T17:32:24.013Z,98.07
2018-03-16T17:33:11.501Z,98.18
2018-03-16T17:34:11.441Z,98.15
2018-03-16T17:35:11.467Z,98.21
2018-03-16T17:36:11.497Z,98.21
2018-03-16T17:37:11.474Z,98.21
2018-03-16T17:38:11.476Z,98.21
2018-03-16T17:39:11.555Z,98.12
2018-03-16T17:40:11.556Z,98.02
2018-03-16T17:41:11.483Z,98.02
2018-03-16T17:42:11.470Z,98.10
2018-03-16T17:43:11.476Z,98.15
2018-03-16T17:44:11.562Z,98.18
2018-03-16T17:45:11.514Z,98.21
2018-03-16T17:46:11.515Z,98.26
2018-03-16T17:47:11.561Z,98.26
2018-03-16T17:48:11.555Z,98.15
2018-03-16T17:49:11.484Z,98.15
2018-03-16T17:50:11.473Z,98.04
2018-03-16T17:51:11.484Z,97.55
2018-03-16T17:52:11.567Z,96.96
2018-03-16T17:53:11.449Z,96.77
2018-03-16T17:54:11.475Z,96.69
2018-03-16T17:55:11.567Z,96.61
2018-03-16T17:56:11.568Z,96.58
2018-03-16T17:57:11.470Z,96.77
2018-03-16T17:58:11.544Z,96.85
2018-03-16T17:59:11.542Z,96.85
2018-03-16T18:00:11.477Z,96.93
2018-03-16T18:01:11.524Z,97.07
2018-03-16T18:02:11.455Z,97.18
2018-03-16T18:03:11.564Z,97.47
2018-03-16T18:04:11.569Z,97.34
2018-03-16T18:05:11.452Z,97.39
2018-03-16T18:06:11.603Z,97.47
2018-03-16T18:07:11.486Z,97.31
2018-03-16T18:08:11.570Z,97.12
2018-03-16T18:09:11.569Z,96.74
2018-03-16T18:10:11.490Z,96.66
2018-03-16T18:11:11.584Z,96.74
2018-03-16T18:12:11.486Z,96.88
2018-03-16T18:13:11.496Z,97.07
2018-03-16T18:14:11.578Z,96.83
2018-03-16T18:15:11.491Z,96.64
2018-03-16T18:16:11.585Z,96.53
2018-03-16T18:17:11.538Z,96.42
2018-03-16T18:18:11.603Z,96.39
2018-03-16T18:19:11.464Z,96.47
2018-03-16T18:20:11.509Z,96.55
2018-03-16T18:21:11.587Z,96.64
2018-03-16T18:22:11.542Z,96.72
2018-03-16T18:23:11.496Z,96.91
2018-03-16T18:24:11.593Z,97.18
2018-03-16T18:25:11.581Z,97.07
2018-03-16T18:26:11.498Z,96.88
2018-03-16T18:27:11.587Z,96.61
2018-03-16T18:28:11.475Z,96.50
2018-03-16T18:29:11.501Z,96.45
2018-03-16T18:30:11.593Z,96.42
2018-03-16T18:31:11.514Z,96.55
2018-03-16T18:32:11.473Z,96.64
2018-03-16T18:33:11.536Z,96.74
2018-03-16T18:34:11.499Z,96.83
2018-03-16T18:35:11.569Z,96.99
2018-03-16T18:36:11.477Z,97.23
2018-03-16T18:37:11.531Z,97.34
2018-03-16T18:38:11.506Z,97.50
2018-03-16T18:39:11.611Z,97.53
2018-03-16T18:40:11.546Z,97.55
2018-03-16T18:41:11.506Z,97.47
2018-03-16T18:42:11.514Z,97.36
2018-03-16T18:43:11.569Z,97.26
2018-03-16T18:44:11.477Z,97.10
2018-03-16T18:45:11.569Z,96.88
2018-03-16T18:46:11.516Z,96.53
2018-03-16T18:47:11.605Z,96.15
2018-03-16T18:48:11.604Z,95.96
2018-03-16T18:49:11.553Z,95.77
2018-03-16T18:50:11.605Z,95.94
2018-03-16T18:51:11.606Z,95.98
2018-03-16T18:52:11.598Z,96.02
2018-03-16T18:53:11.555Z,95.80
2018-03-16T18:54:11.522Z,95.56
2018-03-16T18:55:11.605Z,95.53
2018-03-16T18:56:11.616Z,95.64
2018-03-16T18:57:11.599Z,95.77
2018-03-16T18:58:11.563Z,95.75
2018-03-16T18:59:11.489Z,95.56
2018-03-16T19:00:11.585Z,95.37
2018-03-16T19:01:11.583Z,95.45
2018-03-16T19:02:11.517Z,95.75
2018-03-16T19:03:11.609Z,95.85
2018-03-16T19:04:11.573Z,95.69
2018-03-16T19:05:11.525Z,95.64
2018-03-16T19:06:11.588Z,95.64
2018-03-16T19:07:11.564Z,95.75
2018-03-16T19:08:11.610Z,95.64
2018-03-16T19:09:11.615Z,95.37
2018-03-16T19:10:11.610Z,95.15
2018-03-16T19:11:11.531Z,95.26
2018-03-16T19:12:11.535Z,95.37
2018-03-16T19:13:11.589Z,95.61
2018-03-16T19:14:11.597Z,95.96
2018-03-16T19:15:11.525Z,95.96
2018-03-16T19:16:11.505Z,95.94
2018-03-16T19:17:11.532Z,95.85
2018-03-16T19:18:11.589Z,95.96
2018-03-16T19:19:11.526Z,95.94
2018-03-16T19:20:11.534Z,95.96
2018-03-16T19:21:11.617Z,95.98
2018-03-16T19:22:11.570Z,95.80
2018-03-16T19:23:11.624Z,95.56
2018-03-16T19:24:11.574Z,95.42
2018-03-16T19:25:11.510Z,95.34
2018-03-16T19:26:11.625Z,95.56
2018-03-16T19:27:11.523Z,95.80
2018-03-16T19:28:11.575Z,95.75
2018-03-16T19:29:11.618Z,95.64
2018-03-16T19:30:11.577Z,95.61
2018-03-16T19:31:11.511Z,95.28
2018-03-16T19:32:11.516Z,95.04
2018-03-16T19:33:11.513Z,95.01
2018-03-16T19:34:11.540Z,95.07
2018-03-16T19:35:11.546Z,95.26
2018-03-16T19:36:11.624Z,95.20
2018-03-16T19:37:11.628Z,94.91
2018-03-16T19:38:11.544Z,94.72
2018-03-16T19:39:11.584Z,94.80
2018-03-16T19:40:11.551Z,94.77
2018-03-16T19:41:11.609Z,94.77
2018-03-16T19:42:11.631Z,94.80
2018-03-16T19:43:11.632Z,94.50
2018-03-16T19:44:11.610Z,94.61
2018-03-16T19:45:11.583Z,94.86
2018-03-16T19:46:11.610Z,94.93
2018-03-16T19:47:11.641Z,95.01
2018-03-16T19:48:11.610Z,95.07
2018-03-16T19:49:11.549Z,95.26
2018-03-16T19:50:11.633Z,95.50
2018-03-16T19:51:11.645Z,95.80
2018-03-16T19:52:11.635Z,95.98
2018-03-16T19:53:11.591Z,96.13
2018-03-16T19:54:11.597Z,96.17
2018-03-16T19:55:11.645Z,96.31
2018-03-16T19:56:11.652Z,96.36
2018-03-16T19:57:11.638Z,96.26
2018-03-16T19:58:11.658Z,96.02
2018-03-16T19:59:11.651Z,95.88
2018-03-16T20:00:11.621Z,95.91
2018-03-16T20:01:11.595Z,95.88
2018-03-16T20:02:11.571Z,95.94
2018-03-16T20:03:11.655Z,95.85
2018-03-16T20:04:11.595Z,95.96
2018-03-16T20:05:11.531Z,96.02
2018-03-16T20:06:11.642Z,96.02
2018-03-16T20:07:11.570Z,95.77
2018-03-16T20:08:11.622Z,95.45
2018-03-16T20:09:11.649Z,94.88
2018-03-16T20:10:11.533Z,94.69
2018-03-16T20:11:11.571Z,94.64
2018-03-16T20:12:11.681Z,94.67
2018-03-16T20:13:11.603Z,94.75
2018-03-16T20:14:11.635Z,94.93
2018-03-16T20:15:11.660Z,95.15
2018-03-16T20:16:11.652Z,95.42
2018-03-16T20:17:11.593Z,95.58
2018-03-16T20:18:11.545Z,95.77
2018-03-16T20:19:11.612Z,95.88
2018-03-16T20:20:11.662Z,95.88
2018-03-16T20:21:11.574Z,95.77
2018-03-16T20:22:11.614Z,95.72
2018-03-16T20:23:11.616Z,95.69
2018-03-16T20:24:11.669Z,95.50
2018-03-16T20:25:11.616Z,94.96
2018-03-16T20:26:11.653Z,94.56
2018-03-16T20:27:11.556Z,94.42
2018-03-16T20:28:11.546Z,94.23
2018-03-16T20:29:11.635Z,94.07
2018-03-16T20:30:11.550Z,94.02
2018-03-16T20:31:11.660Z,93.75
2018-03-16T20:32:11.621Z,93.83
2018-03-16T20:33:11.665Z,93.75
2018-03-16T20:34:11.675Z,93.81
2018-03-16T20:35:11.662Z,93.75
2018-03-16T20:36:11.698Z,93.72
2018-03-16T20:37:11.612Z,93.81
2018-03-16T20:38:11.582Z,94.04
2018-03-16T20:39:11.665Z,93.70
2018-03-16T20:40:11.602Z,93.32
2018-03-16T20:41:11.578Z,93.40
2018-03-16T20:42:11.623Z,93.51
2018-03-16T20:43:11.584Z,93.70
2018-03-16T20:44:11.670Z,93.72
2018-03-16T20:45:11.627Z,93.70
2018-03-16T20:46:11.675Z,93.78
2018-03-16T20:47:11.675Z,93.85
2018-03-16T20:48:11.589Z,94.07
2018-03-16T20:49:11.684Z,94.29
2018-03-16T20:50:11.584Z,94.29
2018-03-16T20:51:11.595Z,94.34
2018-03-16T20:52:11.625Z,94.48
2018-03-16T20:53:11.588Z,94.64
2018-03-16T20:54:11.593Z,94.83
2018-03-16T20:55:11.689Z,94.88
2018-03-16T20:56:11.650Z,94.59
2018-03-16T20:57:11.675Z,94.40
2018-03-16T20:58:11.629Z,94.40
2018-03-16T20:59:11.588Z,94.26
2018-03-16T21:00:11.629Z,94.15
2018-03-16T21:01:11.630Z,94.12
2018-03-16T21:02:11.631Z,94.26
2018-03-16T21:03:11.638Z,94.42
2018-03-16T21:04:11.693Z,94.50
2018-03-16T21:05:11.627Z,94.67
2018-03-16T21:06:11.685Z,94.83
2018-03-16T21:07:11.682Z,94.88
2018-03-16T21:08:11.602Z,94.99
2018-03-16T21:09:11.575Z,95.04
2018-03-16T21:10:11.569Z,94.99
2018-03-16T21:11:11.639Z,94.77
2018-03-16T21:12:11.605Z,94.61
2018-03-16T21:13:11.717Z,94.42
2018-03-16T21:14:11.696Z,94.26
2018-03-16T21:15:11.646Z,94.12
2018-03-16T21:16:11.671Z,93.89
2018-03-16T21:17:11.642Z,94.02
2018-03-16T21:18:11.672Z,94.21
2018-03-16T21:19:11.636Z,94.21
2018-03-16T21:20:11.645Z,94.02
2018-03-16T21:21:11.614Z,93.96
2018-03-16T21:22:11.689Z,93.83
2018-03-16T21:23:11.697Z,93.59
2018-03-16T21:24:11.693Z,93.32
2018-03-16T21:25:11.669Z,93.51
2018-03-16T21:26:11.691Z,93.75
2018-03-16T21:27:11.580Z,93.72
2018-03-16T21:28:11.652Z,93.35
2018-03-16T21:29:11.701Z,93.35
2018-03-16T21:30:11.646Z,93.54
2018-03-16T21:31:11.748Z,93.64
2018-03-16T21:32:11.646Z,93.83
2018-03-16T21:33:11.702Z,93.91
2018-03-16T21:34:11.693Z,94.15
2018-03-16T21:35:11.678Z,94.15
2018-03-16T21:36:11.657Z,93.85
2018-03-16T21:37:11.591Z,93.78
2018-03-16T21:38:11.621Z,93.89
2018-03-16T21:39:11.588Z,94.23
2018-03-16T21:40:11.586Z,94.42
2018-03-16T21:41:11.698Z,94.56
2018-03-16T21:42:11.712Z,94.56
2018-03-16T21:43:11.590Z,94.42
2018-03-16T21:44:11.688Z,94.31
2018-03-16T21:45:11.617Z,94.29
2018-03-16T21:46:11.622Z,94.07
2018-03-16T21:47:11.705Z,93.94
2018-03-16T21:48:11.633Z,93.54
2018-03-16T21:49:11.722Z,93.45
2018-03-16T21:50:11.600Z,93.62
2018-03-16T21:51:11.630Z,93.94
2018-03-16T21:52:11.595Z,93.96
2018-03-16T21:53:11.658Z,94.12
2018-03-16T21:54:11.593Z,94.23
2018-03-16T21:55:11.627Z,94.31
2018-03-16T21:56:11.763Z,94.29
2018-03-16T21:57:11.628Z,94.23
2018-03-16T21:58:11.690Z,94.21
2018-03-16T21:59:11.628Z,94.23
2018-03-16T22:00:11.720Z,94.37
2018-03-16T22:01:11.717Z,94.45
2018-03-16T22:02:11.627Z,94.10
2018-03-16T22:03:11.597Z,93.94
2018-03-16T22:04:11.677Z,93.89
2018-03-16T22:05:11.642Z,93.91
2018-03-16T22:06:11.730Z,94.02
2018-03-16T22:07:11.722Z,94.21
2018-03-16T22:08:11.633Z,94.31
2018-03-16T22:09:11.721Z,94.29
2018-03-16T22:10:11.721Z,94.34
2018-03-16T22:11:11.723Z,94.48
2018-03-16T22:12:11.725Z,94.29
2018-03-16T22:13:11.725Z,94.07
2018-03-16T22:14:11.643Z,93.62
2018-03-16T22:15:11.679Z,93.26
2018-03-16T22:16:11.648Z,92.70
2018-03-16T22:17:11.725Z,92.68
2018-03-16T22:18:11.620Z,92.91
2018-03-16T22:19:11.702Z,92.97
2018-03-16T22:20:11.650Z,92.81
2018-03-16T22:21:11.706Z,92.89
2018-03-16T22:22:11.735Z,93.08
2018-03-16T22:23:11.614Z,93.21
2018-03-16T22:24:11.683Z,93.26
2018-03-16T22:25:11.729Z,93.02
2018-03-16T22:26:11.743Z,92.97
2018-03-16T22:27:11.645Z,93.18
2018-03-16T22:28:11.650Z,93.16
2018-03-16T22:29:11.644Z,93.21
2018-03-16T22:30:11.735Z,93.37
2018-03-16T22:31:11.713Z,93.43
2018-03-16T22:32:11.715Z,93.59
2018-03-16T22:33:11.741Z,93.72
2018-03-16T22:34:11.656Z,93.85
2018-03-16T22:35:11.696Z,93.94
2018-03-16T22:36:11.648Z,93.94
2018-03-16T22:37:11.748Z,93.56
2018-03-16T22:38:11.645Z,93.35
2018-03-16T22:39:11.657Z,93.37
2018-03-16T22:40:11.741Z,93.24
2018-03-16T22:41:11.660Z,93.21
2018-03-16T22:42:11.697Z,93.13
2018-03-16T22:43:11.697Z,92.91
2018-03-16T22:44:11.630Z,92.70
2018-03-16T22:45:11.753Z,92.65
2018-03-16T22:46:11.662Z,92.84
2018-03-16T22:47:11.635Z,92.97
2018-03-16T22:48:11.842Z,93.35
2018-03-16T22:49:11.631Z,93.24
2018-03-16T22:50:11.663Z,93.26
2018-03-16T22:51:11.744Z,92.97
2018-03-16T22:52:11.664Z,92.86
2018-03-16T22:53:11.701Z,93.16
2018-03-16T22:54:11.658Z,93.67
2018-03-16T22:55:11.664Z,93.99
2018-03-16T22:56:11.640Z,94.04
2018-03-16T22:57:11.636Z,94.40
2018-03-16T22:58:11.671Z,94.07
2018-03-16T22:59:11.672Z,94.29
2018-03-16T23:00:11.642Z,94.99
2018-03-16T23:01:11.641Z,95.58
2018-03-16T23:02:11.676Z,95.75
2018-03-16T23:03:11.758Z,95.75
2018-03-16T23:04:11.707Z,95.66
2018-03-16T23:05:11.647Z,95.39
2018-03-16T23:06:11.676Z,94.77
2018-03-16T23:07:11.757Z,94.80
2018-03-16T23:08:11.768Z,94.88
2018-03-16T23:09:11.652Z,94.91
2018-03-16T23:10:11.713Z,94.80
2018-03-16T23:11:11.649Z,94.69
2018-03-16T23:12:11.650Z,94.80
2018-03-16T23:13:11.754Z,94.91
2018-03-16T23:14:11.765Z,95.01
2018-03-16T23:15:11.765Z,94.93
2018-03-16T23:16:11.734Z,94.53
2018-03-16T23:17:11.763Z,94.10
2018-03-16T23:18:11.717Z,93.99
2018-03-16T23:21:11.746Z,94.50
2018-03-16T23:22:11.773Z,94.42
2018-03-16T23:23:11.771Z,94.45
2018-03-16T23:24:11.766Z,94.42
2018-03-16T23:25:11.746Z,94.10
2018-03-16T23:26:11.665Z,93.89
2018-03-16T23:27:11.689Z,94.07
2018-03-16T23:28:11.729Z,94.37
2018-03-16T23:29:11.769Z,94.61
2018-03-16T23:30:11.681Z,94.80
2018-03-16T23:31:11.661Z,96.93
2018-03-16T23:32:11.724Z,98.42
2018-03-16T23:33:11.783Z,99.59
2018-03-16T23:34:11.664Z,99.99
2018-03-16T23:35:11.729Z,99.99
2018-03-16T23:36:11.756Z,99.99
2018-03-16T23:37:11.661Z,99.99
2018-03-16T23:38:11.752Z,99.99
2018-03-16T23:39:11.735Z,99.99
2018-03-16T23:40:11.774Z,99.99
2018-03-16T23:41:11.670Z,99.99
2018-03-16T23:42:11.758Z,99.99
2018-03-16T23:43:11.729Z,99.99
2018-03-16T23:44:11.758Z,99.99
2018-03-16T23:45:11.736Z,99.59
2018-03-16T23:46:11.782Z,99.21
2018-03-16T23:47:11.785Z,98.96
2018-03-16T23:48:11.737Z,98.66
2018-03-16T23:49:11.736Z,98.18
2018-03-16T23:50:11.742Z,97.50
2018-03-16T23:51:11.671Z,97.36
2018-03-16T23:52:11.791Z,97.85
2018-03-16T23:53:11.787Z,98.21
2018-03-16T23:54:11.703Z,98.23
2018-03-16T23:55:11.675Z,98.48
2018-03-16T23:56:11.785Z,98.69
2018-03-16T23:57:11.745Z,98.94
2018-03-16T23:58:11.762Z,98.83
2018-03-16T23:59:11.742Z,98.34
